createdAt,value
2019-03-31T00:03:57.030Z,96011.00
2019-03-31T00:09:26.575Z,96010.00
2019-03-31T00:14:57.427Z,96007.00
2019-03-31T00:20:26.958Z,96005.00
2019-03-31T00:25:56.376Z,96000.00
2019-03-31T00:31:25.817Z,96010.00
2019-03-31T00:36:55.371Z,96007.00
2019-03-31T00:42:24.822Z,95999.00
2019-03-31T00:47:55.888Z,95997.00
2019-03-31T00:53:25.552Z,95998.00
2019-03-31T00:58:55.078Z,96006.00
2019-03-31T01:04:27.370Z,95997.00
2019-03-31T01:09:58.283Z,95994.00
2019-03-31T01:15:28.051Z,95988.00
2019-03-31T01:20:57.681Z,95990.00
2019-03-31T01:26:27.570Z,95992.00
2019-03-31T01:31:57.494Z,95985.00
2019-03-31T01:37:27.121Z,95980.00
2019-03-31T01:42:56.729Z,95984.00
2019-03-31T01:48:26.324Z,95983.00
2019-03-31T01:53:55.813Z,95984.00
2019-03-31T01:59:25.236Z,95976.00
2019-03-31T02:04:54.758Z,95976.00
2019-03-31T02:10:24.184Z,95972.00
2019-03-31T02:15:53.691Z,95966.00
2019-03-31T02:21:23.125Z,95973.00
2019-03-31T02:26:52.581Z,95965.00
2019-03-31T02:32:24.178Z,95964.00
2019-03-31T02:37:53.137Z,95963.00
2019-03-31T02:43:23.588Z,95955.00
2019-03-31T02:48:52.966Z,95953.00
2019-03-31T02:54:22.422Z,95945.00
2019-03-31T02:59:52.947Z,95949.00
2019-03-31T03:05:24.541Z,95947.00
2019-03-31T03:10:54.168Z,95945.00
2019-03-31T03:16:23.759Z,95941.00
2019-03-31T03:21:53.071Z,95939.00
2019-03-31T03:27:22.538Z,95945.00
2019-03-31T03:33:13.527Z,95936.00
2019-03-31T03:38:23.072Z,95938.00
2019-03-31T03:43:59.679Z,95932.00
2019-03-31T03:49:23.559Z,95926.00
2019-03-31T03:54:52.892Z,95926.00
2019-03-31T04:00:22.267Z,95924.00
2019-03-31T04:05:51.670Z,95915.00
2019-03-31T04:11:23.321Z,95929.00
2019-03-31T04:16:52.641Z,95926.00
2019-03-31T04:22:22.017Z,95933.00
2019-03-31T04:27:51.419Z,95936.00
2019-03-31T04:33:20.745Z,95935.00
2019-03-31T04:38:50.342Z,95934.00
2019-03-31T04:44:19.709Z,95932.00
2019-03-31T04:49:49.035Z,95931.00
2019-03-31T04:55:18.367Z,95933.00
2019-03-31T05:00:47.772Z,95944.00
2019-03-31T05:06:17.196Z,95939.00
2019-03-31T05:11:46.515Z,95945.00
2019-03-31T05:17:15.979Z,95937.00
2019-03-31T05:22:45.283Z,95943.00
2019-03-31T05:28:14.669Z,95953.00
2019-03-31T05:33:44.006Z,95950.00
2019-03-31T05:39:13.333Z,95947.00
2019-03-31T05:44:42.728Z,95949.00
2019-03-31T05:50:12.221Z,95957.00
2019-03-31T05:55:41.608Z,95963.00
2019-03-31T06:01:10.980Z,95958.00
2019-03-31T06:06:40.400Z,95962.00
2019-03-31T06:12:09.700Z,95971.00
2019-03-31T06:17:39.067Z,95970.00
2019-03-31T06:23:08.542Z,95979.00
2019-03-31T06:28:37.955Z,95976.00
2019-03-31T06:34:07.467Z,95981.00
2019-03-31T06:39:36.783Z,95987.00
2019-03-31T06:45:08.144Z,95983.00
2019-03-31T06:50:37.526Z,95993.00
2019-03-31T06:56:06.915Z,95987.00
2019-03-31T07:01:36.256Z,95987.00
2019-03-31T07:07:05.659Z,95995.00
2019-03-31T07:12:35.175Z,96000.00
2019-03-31T07:18:04.645Z,95994.00
2019-03-31T07:23:34.051Z,96000.00
2019-03-31T07:29:03.899Z,96006.00
2019-03-31T07:34:33.246Z,96002.00
2019-03-31T07:40:03.131Z,96006.00
2019-03-31T07:45:32.594Z,96005.00
2019-03-31T07:51:02.165Z,96000.00
2019-03-31T07:56:31.708Z,96009.00
2019-03-31T08:02:01.330Z,96008.00
2019-03-31T08:07:30.962Z,96008.00
2019-03-31T08:13:00.494Z,96005.00
2019-03-31T08:18:29.979Z,96005.00
2019-03-31T08:23:59.651Z,96002.00
2019-03-31T08:29:29.451Z,96006.00
2019-03-31T08:34:59.007Z,96012.00
2019-03-31T08:40:28.681Z,96008.00
2019-03-31T08:45:58.519Z,96011.00
2019-03-31T08:51:28.224Z,96002.00
2019-03-31T08:56:57.778Z,95999.00
2019-03-31T09:02:36.361Z,96006.00
2019-03-31T09:08:05.827Z,96002.00
2019-03-31T09:13:37.004Z,95998.00
2019-03-31T09:19:06.427Z,95993.00
2019-03-31T09:24:35.968Z,95992.00
2019-03-31T09:30:11.479Z,95996.00
2019-03-31T09:35:41.087Z,95995.00
2019-03-31T09:41:10.518Z,95997.00
2019-03-31T09:46:40.585Z,95997.00
2019-03-31T09:52:10.087Z,95992.00
2019-03-31T09:57:39.822Z,95987.00
2019-03-31T10:03:09.226Z,95980.00
2019-03-31T10:08:38.749Z,95980.00
2019-03-31T10:14:08.093Z,95975.00
2019-03-31T10:19:37.439Z,95962.00
2019-03-31T10:25:08.234Z,95963.00
2019-03-31T10:30:40.240Z,95959.00
2019-03-31T10:36:15.132Z,95945.00
2019-03-31T10:41:44.777Z,95944.00
2019-03-31T10:47:14.168Z,95932.00
2019-03-31T10:52:43.854Z,95932.00
2019-03-31T10:58:13.200Z,95938.00
2019-03-31T11:03:42.702Z,95924.00
2019-03-31T11:09:12.193Z,95925.00
2019-03-31T11:14:41.683Z,95921.00
2019-03-31T11:20:11.170Z,95915.00
2019-03-31T11:25:40.513Z,95915.00
2019-03-31T11:31:09.844Z,95912.00
2019-03-31T11:36:39.269Z,95907.00
2019-03-31T11:42:08.688Z,95912.00
2019-03-31T11:47:38.239Z,95898.00
2019-03-31T11:53:07.638Z,95893.00
2019-03-31T11:58:37.048Z,95894.00
2019-03-31T12:04:06.597Z,95898.00
2019-03-31T12:09:36.094Z,95893.00
2019-03-31T12:15:07.291Z,95891.00
2019-03-31T12:20:36.878Z,95879.00
2019-03-31T12:26:06.271Z,95878.00
2019-03-31T12:31:35.854Z,95867.00
2019-03-31T12:37:05.343Z,95870.00
2019-03-31T12:42:34.746Z,95850.00
2019-03-31T12:48:05.238Z,95861.00
2019-03-31T12:53:34.697Z,95846.00
2019-03-31T12:59:04.191Z,95839.00
2019-03-31T13:04:33.691Z,95836.00
2019-03-31T13:10:03.229Z,95830.00
2019-03-31T13:15:32.595Z,95832.00
2019-03-31T13:21:02.086Z,95828.00
2019-03-31T13:26:31.501Z,95826.00
2019-03-31T13:32:01.030Z,95826.00
2019-03-31T13:37:30.469Z,95821.00
2019-03-31T13:42:59.961Z,95815.00
2019-03-31T13:48:29.400Z,95820.00
2019-03-31T13:53:58.955Z,95789.00
2019-03-31T13:59:28.472Z,95770.00
2019-03-31T14:04:57.940Z,95760.00
2019-03-31T14:10:27.653Z,95762.00
2019-03-31T14:15:57.391Z,95770.00
2019-03-31T14:21:27.180Z,95717.00
2019-03-31T14:26:56.616Z,95720.00
2019-03-31T14:32:27.539Z,95706.00
2019-03-31T14:37:57.406Z,95711.00
2019-03-31T14:43:28.421Z,95705.00
2019-03-31T14:48:58.294Z,95708.00
2019-03-31T14:54:28.106Z,95714.00
2019-03-31T15:00:14.131Z,95710.00
2019-03-31T15:05:33.611Z,95716.00
2019-03-31T15:11:04.926Z,95709.00
2019-03-31T15:16:34.656Z,95708.00
2019-03-31T15:22:04.341Z,95751.00
2019-03-31T15:27:34.126Z,95742.00
2019-03-31T15:33:03.644Z,95756.00
2019-03-31T15:38:33.293Z,95766.00
2019-03-31T15:44:02.937Z,95762.00
2019-03-31T15:49:34.038Z,95761.00
2019-03-31T15:55:05.502Z,95755.00
2019-03-31T16:00:44.103Z,95755.00
2019-03-31T16:06:11.832Z,95729.00
2019-03-31T16:11:53.508Z,95725.00
2019-03-31T16:17:20.268Z,95741.00
2019-03-31T16:22:53.466Z,95774.00
2019-03-31T16:28:34.106Z,95774.00
2019-03-31T16:34:04.021Z,95777.00
2019-03-31T16:39:37.774Z,95771.00
2019-03-31T16:45:08.281Z,95772.00
2019-03-31T16:50:38.133Z,95765.00
2019-03-31T16:56:07.984Z,95765.00
2019-03-31T17:01:37.904Z,95772.00
2019-03-31T17:07:07.729Z,95773.00
2019-03-31T17:12:48.706Z,95773.00
2019-03-31T17:18:18.283Z,95770.00
2019-03-31T17:23:47.695Z,95774.00
2019-03-31T17:29:17.155Z,95774.00
2019-03-31T17:34:46.643Z,95779.00
2019-03-31T17:40:16.192Z,95776.00
2019-03-31T17:45:45.861Z,95773.00
2019-03-31T17:51:15.538Z,95777.00
2019-03-31T17:56:45.133Z,95783.00
2019-03-31T18:02:15.057Z,95779.00
2019-03-31T18:07:50.189Z,95784.00
2019-03-31T18:13:16.453Z,95787.00
2019-03-31T18:18:45.955Z,95779.00
2019-03-31T18:24:15.750Z,95781.00
2019-03-31T18:29:45.367Z,95786.00
2019-03-31T18:35:16.934Z,95798.00
2019-03-31T18:40:46.930Z,95792.00
2019-03-31T18:46:18.112Z,95809.00
2019-03-31T18:51:56.832Z,95810.00
2019-03-31T18:57:27.987Z,95802.00
2019-03-31T19:03:11.326Z,95806.00
2019-03-31T19:08:45.390Z,95803.00
2019-03-31T19:14:16.856Z,95814.00
2019-03-31T19:19:51.000Z,95812.00
2019-03-31T19:25:25.011Z,95810.00
2019-03-31T19:31:05.352Z,95809.00
2019-03-31T19:36:45.943Z,95802.00
2019-03-31T19:42:26.631Z,95808.00
2019-03-31T19:48:09.924Z,95806.00
2019-03-31T19:53:46.685Z,95815.00
2019-03-31T19:59:35.767Z,95807.00
2019-03-31T20:05:09.967Z,95816.00
2019-03-31T20:10:50.229Z,95816.00
2019-03-31T20:16:24.291Z,95816.00
2019-03-31T20:21:58.214Z,95817.00
2019-03-31T20:27:29.522Z,95823.00
2019-03-31T20:33:00.883Z,95825.00
2019-03-31T20:38:49.569Z,95820.00
2019-03-31T20:44:19.463Z,95824.00
2019-03-31T20:49:48.928Z,95817.00
2019-03-31T20:55:18.886Z,95811.00
2019-03-31T21:00:48.640Z,95820.00
2019-03-31T21:06:18.134Z,95816.00
2019-03-31T21:11:47.500Z,95825.00
2019-03-31T21:17:17.065Z,95838.00
2019-03-31T21:22:46.502Z,95831.00
2019-03-31T21:28:15.965Z,95836.00
2019-03-31T21:33:45.430Z,95839.00
2019-03-31T21:39:14.850Z,95840.00
2019-03-31T21:44:44.263Z,95841.00
2019-03-31T21:50:14.365Z,95850.00
2019-03-31T21:55:44.767Z,95845.00
2019-03-31T22:01:14.740Z,95850.00
2019-03-31T22:06:44.117Z,95857.00
2019-03-31T22:12:13.429Z,95850.00
2019-03-31T22:17:45.948Z,95851.00
2019-03-31T22:23:18.546Z,95849.00
2019-03-31T22:28:48.204Z,95845.00
2019-03-31T22:34:17.702Z,95840.00
2019-03-31T22:39:47.081Z,95837.00
2019-03-31T22:45:16.598Z,95835.00
2019-03-31T22:50:46.024Z,95836.00
2019-03-31T22:56:16.481Z,95849.00
2019-03-31T23:01:45.799Z,95838.00
2019-03-31T23:07:15.214Z,95837.00
2019-03-31T23:12:44.601Z,95839.00
2019-03-31T23:18:14.120Z,95845.00
2019-03-31T23:23:43.600Z,95834.00
2019-03-31T23:29:13.052Z,95837.00
2019-03-31T23:34:42.637Z,95834.00
2019-03-31T23:40:12.197Z,95838.00
2019-03-31T23:45:41.531Z,95836.00
2019-03-31T23:51:10.986Z,95826.00
2019-03-31T23:56:42.191Z,95822.00
